sensor_id;sensor_type;location;lat;lon;timestamp;temperature;humidity
28520;DHT22;15732;48.534;20.382;2023-09-07T00:01:16;16.40;99.90
28520;DHT22;15732;48.534;20.382;2023-09-07T00:03:43;16.30;99.90
28520;DHT22;15732;48.534;20.382;2023-09-07T00:06:10;16.30;99.90
28520;DHT22;15732;48.534;20.382;2023-09-07T00:08:38;16.10;99.90
28520;DHT22;15732;48.534;20.382;2023-09-07T00:11:06;16.10;99.90
28520;DHT22;15732;48.534;20.382;2023-09-07T00:13:33;15.90;99.90
28520;DHT22;15732;48.534;20.382;2023-09-07T00:16:01;15.90;99.90
28520;DHT22;15732;48.534;20.382;2023-09-07T00:18:29;15.90;99.90
28520;DHT22;15732;48.534;20.382;2023-09-07T00:20:56;15.80;99.90
28520;DHT22;15732;48.534;20.382;2023-09-07T00:23:23;15.80;99.90
28520;DHT22;15732;48.534;20.382;2023-09-07T00:25:50;15.70;99.90
28520;DHT22;15732;48.534;20.382;2023-09-07T00:28:17;15.70;99.90
28520;DHT22;15732;48.534;20.382;2023-09-07T00:30:45;15.70;99.90
28520;DHT22;15732;48.534;20.382;2023-09-07T00:33:12;15.70;99.90
28520;DHT22;15732;48.534;20.382;2023-09-07T00:35:39;15.60;99.90
28520;DHT22;15732;48.534;20.382;2023-09-07T00:38:06;15.70;99.90
28520;DHT22;15732;48.534;20.382;2023-09-07T00:40:34;15.80;99.90
28520;DHT22;15732;48.534;20.382;2023-09-07T00:43:02;15.80;99.90
28520;DHT22;15732;48.534;20.382;2023-09-07T00:45:31;15.80;99.90
28520;DHT22;15732;48.534;20.382;2023-09-07T00:47:58;15.70;99.90
28520;DHT22;15732;48.534;20.382;2023-09-07T00:50:25;15.80;99.90
28520;DHT22;15732;48.534;20.382;2023-09-07T00:52:52;15.80;99.90
28520;DHT22;15732;48.534;20.382;2023-09-07T00:55:20;15.80;99.90
28520;DHT22;15732;48.534;20.382;2023-09-07T00:57:49;15.90;99.90
28520;DHT22;15732;48.534;20.382;2023-09-07T01:00:16;15.90;99.90
28520;DHT22;15732;48.534;20.382;2023-09-07T01:02:44;16.00;99.90
28520;DHT22;15732;48.534;20.382;2023-09-07T01:05:11;16.00;99.90
28520;DHT22;15732;48.534;20.382;2023-09-07T01:07:46;16.00;99.90
28520;DHT22;15732;48.534;20.382;2023-09-07T01:10:14;16.00;99.90
28520;DHT22;15732;48.534;20.382;2023-09-07T01:12:42;16.10;99.90
28520;DHT22;15732;48.534;20.382;2023-09-07T01:15:10;16.10;99.90
28520;DHT22;15732;48.534;20.382;2023-09-07T01:17:37;16.00;99.90
28520;DHT22;15732;48.534;20.382;2023-09-07T01:20:11;15.90;99.90
28520;DHT22;15732;48.534;20.382;2023-09-07T01:22:40;15.80;99.90
28520;DHT22;15732;48.534;20.382;2023-09-07T01:25:08;15.80;99.90
28520;DHT22;15732;48.534;20.382;2023-09-07T01:27:35;15.80;99.90
28520;DHT22;15732;48.534;20.382;2023-09-07T01:30:02;15.80;99.90
28520;DHT22;15732;48.534;20.382;2023-09-07T01:32:29;15.80;99.90
28520;DHT22;15732;48.534;20.382;2023-09-07T01:34:57;15.90;99.90
28520;DHT22;15732;48.534;20.382;2023-09-07T01:37:25;15.90;99.90
28520;DHT22;15732;48.534;20.382;2023-09-07T01:39:52;15.90;99.90
28520;DHT22;15732;48.534;20.382;2023-09-07T01:42:20;15.90;99.90
28520;DHT22;15732;48.534;20.382;2023-09-07T01:44:48;15.90;99.90
28520;DHT22;15732;48.534;20.382;2023-09-07T01:47:15;15.90;99.90
28520;DHT22;15732;48.534;20.382;2023-09-07T01:49:43;15.80;99.90
28520;DHT22;15732;48.534;20.382;2023-09-07T01:52:10;15.80;99.90
28520;DHT22;15732;48.534;20.382;2023-09-07T01:54:37;15.90;99.90
28520;DHT22;15732;48.534;20.382;2023-09-07T01:57:05;15.90;99.90
28520;DHT22;15732;48.534;20.382;2023-09-07T01:59:32;15.90;99.90
28520;DHT22;15732;48.534;20.382;2023-09-07T02:01:59;15.90;99.90
28520;DHT22;15732;48.534;20.382;2023-09-07T02:04:27;15.90;99.90
28520;DHT22;15732;48.534;20.382;2023-09-07T02:06:54;15.90;99.90
28520;DHT22;15732;48.534;20.382;2023-09-07T02:09:21;15.90;99.90
28520;DHT22;15732;48.534;20.382;2023-09-07T02:11:48;15.90;99.90
28520;DHT22;15732;48.534;20.382;2023-09-07T02:14:16;15.90;99.90
28520;DHT22;15732;48.534;20.382;2023-09-07T02:16:43;15.80;99.90
28520;DHT22;15732;48.534;20.382;2023-09-07T02:19:10;15.80;99.90
28520;DHT22;15732;48.534;20.382;2023-09-07T02:21:37;15.80;99.90
28520;DHT22;15732;48.534;20.382;2023-09-07T02:24:06;15.80;99.90
28520;DHT22;15732;48.534;20.382;2023-09-07T02:26:33;15.80;99.90
28520;DHT22;15732;48.534;20.382;2023-09-07T02:29:00;15.80;99.90
28520;DHT22;15732;48.534;20.382;2023-09-07T02:31:32;15.70;99.90
28520;DHT22;15732;48.534;20.382;2023-09-07T02:33:59;15.50;99.90
28520;DHT22;15732;48.534;20.382;2023-09-07T02:36:27;15.30;99.90
28520;DHT22;15732;48.534;20.382;2023-09-07T02:38:54;15.00;99.90
28520;DHT22;15732;48.534;20.382;2023-09-07T02:41:21;14.90;99.90
28520;DHT22;15732;48.534;20.382;2023-09-07T02:43:49;14.90;99.90
28520;DHT22;15732;48.534;20.382;2023-09-07T02:46:16;14.90;99.90
28520;DHT22;15732;48.534;20.382;2023-09-07T02:48:43;14.90;99.90
28520;DHT22;15732;48.534;20.382;2023-09-07T02:51:14;15.00;99.90
28520;DHT22;15732;48.534;20.382;2023-09-07T02:53:46;14.90;99.90
28520;DHT22;15732;48.534;20.382;2023-09-07T02:56:14;14.80;99.90
28520;DHT22;15732;48.534;20.382;2023-09-07T02:58:41;14.80;99.90
28520;DHT22;15732;48.534;20.382;2023-09-07T03:01:08;14.80;99.90
28520;DHT22;15732;48.534;20.382;2023-09-07T03:03:39;14.70;99.90
28520;DHT22;15732;48.534;20.382;2023-09-07T03:06:08;14.60;99.90
28520;DHT22;15732;48.534;20.382;2023-09-07T03:08:36;14.70;99.90
28520;DHT22;15732;48.534;20.382;2023-09-07T03:11:04;14.70;99.90
28520;DHT22;15732;48.534;20.382;2023-09-07T03:13:31;14.60;99.90
28520;DHT22;15732;48.534;20.382;2023-09-07T03:15:59;14.50;99.90
28520;DHT22;15732;48.534;20.382;2023-09-07T03:18:26;14.40;99.90
28520;DHT22;15732;48.534;20.382;2023-09-07T03:20:54;14.40;99.90
28520;DHT22;15732;48.534;20.382;2023-09-07T03:23:22;14.30;99.90
28520;DHT22;15732;48.534;20.382;2023-09-07T03:25:49;14.30;99.90
28520;DHT22;15732;48.534;20.382;2023-09-07T03:28:16;14.20;99.90
28520;DHT22;15732;48.534;20.382;2023-09-07T03:30:44;14.20;99.90
28520;DHT22;15732;48.534;20.382;2023-09-07T03:33:11;14.20;99.90
28520;DHT22;15732;48.534;20.382;2023-09-07T03:35:38;14.20;99.90
28520;DHT22;15732;48.534;20.382;2023-09-07T03:38:07;14.20;99.90
28520;DHT22;15732;48.534;20.382;2023-09-07T03:40:35;14.10;99.90
28520;DHT22;15732;48.534;20.382;2023-09-07T03:43:02;14.00;99.90
28520;DHT22;15732;48.534;20.382;2023-09-07T03:45:30;14.00;99.90
28520;DHT22;15732;48.534;20.382;2023-09-07T03:47:57;14.00;99.90
28520;DHT22;15732;48.534;20.382;2023-09-07T03:50:24;13.90;99.90
28520;DHT22;15732;48.534;20.382;2023-09-07T03:52:52;13.90;99.90
28520;DHT22;15732;48.534;20.382;2023-09-07T03:55:24;13.90;99.90
28520;DHT22;15732;48.534;20.382;2023-09-07T03:57:51;13.90;99.90
28520;DHT22;15732;48.534;20.382;2023-09-07T04:00:18;13.90;99.90
28520;DHT22;15732;48.534;20.382;2023-09-07T04:02:46;13.90;99.90
28520;DHT22;15732;48.534;20.382;2023-09-07T04:05:13;14.00;99.90
28520;DHT22;15732;48.534;20.382;2023-09-07T04:07:41;14.00;99.90
28520;DHT22;15732;48.534;20.382;2023-09-07T04:10:08;13.90;99.90
28520;DHT22;15732;48.534;20.382;2023-09-07T04:12:36;13.90;99.90
28520;DHT22;15732;48.534;20.382;2023-09-07T04:15:03;13.90;99.90
28520;DHT22;15732;48.534;20.382;2023-09-07T04:17:30;14.00;99.90
28520;DHT22;15732;48.534;20.382;2023-09-07T04:20:08;14.10;99.90
28520;DHT22;15732;48.534;20.382;2023-09-07T04:22:39;14.10;99.90
28520;DHT22;15732;48.534;20.382;2023-09-07T04:25:09;14.20;99.90
28520;DHT22;15732;48.534;20.382;2023-09-07T04:27:37;14.30;99.90
28520;DHT22;15732;48.534;20.382;2023-09-07T04:30:05;14.30;99.90
28520;DHT22;15732;48.534;20.382;2023-09-07T04:32:34;14.20;99.90
28520;DHT22;15732;48.534;20.382;2023-09-07T04:35:07;14.20;99.90
28520;DHT22;15732;48.534;20.382;2023-09-07T04:37:34;14.30;99.90
28520;DHT22;15732;48.534;20.382;2023-09-07T04:40:01;14.20;99.90
28520;DHT22;15732;48.534;20.382;2023-09-07T04:42:29;14.20;99.90
28520;DHT22;15732;48.534;20.382;2023-09-07T04:44:56;14.10;99.90
28520;DHT22;15732;48.534;20.382;2023-09-07T04:47:24;14.10;99.90
28520;DHT22;15732;48.534;20.382;2023-09-07T04:49:51;14.10;99.90
28520;DHT22;15732;48.534;20.382;2023-09-07T04:52:18;14.10;99.90
28520;DHT22;15732;48.534;20.382;2023-09-07T04:54:45;14.10;99.90
28520;DHT22;15732;48.534;20.382;2023-09-07T04:57:15;14.10;99.90
28520;DHT22;15732;48.534;20.382;2023-09-07T04:59:44;14.00;99.90
28520;DHT22;15732;48.534;20.382;2023-09-07T05:02:11;14.00;99.90
28520;DHT22;15732;48.534;20.382;2023-09-07T05:04:38;14.00;99.90
28520;DHT22;15732;48.534;20.382;2023-09-07T05:07:05;14.00;99.90
28520;DHT22;15732;48.534;20.382;2023-09-07T05:09:33;14.00;99.90
28520;DHT22;15732;48.534;20.382;2023-09-07T05:12:00;14.10;99.90
28520;DHT22;15732;48.534;20.382;2023-09-07T05:14:27;14.20;99.90
28520;DHT22;15732;48.534;20.382;2023-09-07T05:16:55;14.20;99.90
28520;DHT22;15732;48.534;20.382;2023-09-07T05:19:23;14.20;99.90
28520;DHT22;15732;48.534;20.382;2023-09-07T05:21:50;14.20;99.90
28520;DHT22;15732;48.534;20.382;2023-09-07T05:24:21;14.30;99.90
28520;DHT22;15732;48.534;20.382;2023-09-07T05:26:49;14.20;99.90
28520;DHT22;15732;48.534;20.382;2023-09-07T05:29:20;14.20;99.90
28520;DHT22;15732;48.534;20.382;2023-09-07T05:31:49;14.20;99.90
28520;DHT22;15732;48.534;20.382;2023-09-07T05:34:16;14.10;99.90
28520;DHT22;15732;48.534;20.382;2023-09-07T05:36:48;14.20;99.90
28520;DHT22;15732;48.534;20.382;2023-09-07T05:39:16;14.30;99.90
28520;DHT22;15732;48.534;20.382;2023-09-07T05:41:49;14.40;99.90
28520;DHT22;15732;48.534;20.382;2023-09-07T05:44:17;14.40;99.90
28520;DHT22;15732;48.534;20.382;2023-09-07T05:46:44;14.40;99.90
28520;DHT22;15732;48.534;20.382;2023-09-07T05:49:11;14.40;99.90
28520;DHT22;15732;48.534;20.382;2023-09-07T05:51:42;14.50;99.90
28520;DHT22;15732;48.534;20.382;2023-09-07T05:54:09;14.60;99.90
28520;DHT22;15732;48.534;20.382;2023-09-07T05:56:37;14.60;99.90
28520;DHT22;15732;48.534;20.382;2023-09-07T05:59:04;14.70;99.90
28520;DHT22;15732;48.534;20.382;2023-09-07T06:01:32;14.80;99.90
28520;DHT22;15732;48.534;20.382;2023-09-07T06:03:58;14.80;99.90
28520;DHT22;15732;48.534;20.382;2023-09-07T06:06:29;14.90;99.90
28520;DHT22;15732;48.534;20.382;2023-09-07T06:09:00;15.00;99.90
28520;DHT22;15732;48.534;20.382;2023-09-07T06:11:28;15.10;99.90
28520;DHT22;15732;48.534;20.382;2023-09-07T06:13:56;15.20;99.90
28520;DHT22;15732;48.534;20.382;2023-09-07T06:16:24;15.20;99.90
28520;DHT22;15732;48.534;20.382;2023-09-07T06:18:55;15.30;99.90
28520;DHT22;15732;48.534;20.382;2023-09-07T06:21:22;15.50;99.90
28520;DHT22;15732;48.534;20.382;2023-09-07T06:23:50;15.60;99.90
28520;DHT22;15732;48.534;20.382;2023-09-07T06:26:21;15.80;99.90
28520;DHT22;15732;48.534;20.382;2023-09-07T06:28:48;16.00;99.90
28520;DHT22;15732;48.534;20.382;2023-09-07T06:31:16;16.00;99.90
28520;DHT22;15732;48.534;20.382;2023-09-07T06:33:43;16.20;99.90
28520;DHT22;15732;48.534;20.382;2023-09-07T06:36:11;16.30;99.90
28520;DHT22;15732;48.534;20.382;2023-09-07T06:38:38;16.40;99.90
28520;DHT22;15732;48.534;20.382;2023-09-07T06:41:05;16.50;99.90
28520;DHT22;15732;48.534;20.382;2023-09-07T06:43:34;16.70;99.90
28520;DHT22;15732;48.534;20.382;2023-09-07T06:46:06;16.80;99.90
28520;DHT22;15732;48.534;20.382;2023-09-07T06:48:35;16.90;99.90
28520;DHT22;15732;48.534;20.382;2023-09-07T06:51:08;17.00;99.90
28520;DHT22;15732;48.534;20.382;2023-09-07T06:53:36;17.10;99.90
28520;DHT22;15732;48.534;20.382;2023-09-07T06:56:03;17.20;99.90
28520;DHT22;15732;48.534;20.382;2023-09-07T06:58:31;17.30;99.90
28520;DHT22;15732;48.534;20.382;2023-09-07T07:01:01;17.50;99.90
28520;DHT22;15732;48.534;20.382;2023-09-07T07:03:31;17.70;99.90
28520;DHT22;15732;48.534;20.382;2023-09-07T07:05:58;17.80;99.90
28520;DHT22;15732;48.534;20.382;2023-09-07T07:08:25;17.90;99.90
28520;DHT22;15732;48.534;20.382;2023-09-07T07:10:53;18.10;99.90
28520;DHT22;15732;48.534;20.382;2023-09-07T07:13:20;18.10;99.90
28520;DHT22;15732;48.534;20.382;2023-09-07T07:15:47;18.20;99.90
28520;DHT22;15732;48.534;20.382;2023-09-07T07:18:15;18.50;99.90
28520;DHT22;15732;48.534;20.382;2023-09-07T07:20:43;18.60;99.90
28520;DHT22;15732;48.534;20.382;2023-09-07T07:23:12;18.80;99.90
28520;DHT22;15732;48.534;20.382;2023-09-07T07:25:40;18.90;99.90
28520;DHT22;15732;48.534;20.382;2023-09-07T07:28:07;19.10;99.90
28520;DHT22;15732;48.534;20.382;2023-09-07T07:30:36;19.20;99.90
28520;DHT22;15732;48.534;20.382;2023-09-07T07:33:07;19.40;99.90
28520;DHT22;15732;48.534;20.382;2023-09-07T07:35:34;19.50;99.90
28520;DHT22;15732;48.534;20.382;2023-09-07T07:38:03;19.70;99.90
28520;DHT22;15732;48.534;20.382;2023-09-07T07:40:31;19.70;99.90
28520;DHT22;15732;48.534;20.382;2023-09-07T07:42:59;19.90;99.90
28520;DHT22;15732;48.534;20.382;2023-09-07T07:45:26;20.00;99.90
28520;DHT22;15732;48.534;20.382;2023-09-07T07:47:53;20.00;99.90
28520;DHT22;15732;48.534;20.382;2023-09-07T07:50:20;20.20;99.90
28520;DHT22;15732;48.534;20.382;2023-09-07T07:52:48;20.30;99.90
28520;DHT22;15732;48.534;20.382;2023-09-07T07:55:15;20.30;99.90
28520;DHT22;15732;48.534;20.382;2023-09-07T07:57:42;20.40;99.90
28520;DHT22;15732;48.534;20.382;2023-09-07T08:00:11;20.50;99.90
28520;DHT22;15732;48.534;20.382;2023-09-07T08:02:39;20.70;99.90
28520;DHT22;15732;48.534;20.382;2023-09-07T08:05:08;20.80;99.90
28520;DHT22;15732;48.534;20.382;2023-09-07T08:07:35;20.90;99.90
28520;DHT22;15732;48.534;20.382;2023-09-07T08:10:03;21.00;99.90
28520;DHT22;15732;48.534;20.382;2023-09-07T08:12:31;21.00;99.90
28520;DHT22;15732;48.534;20.382;2023-09-07T08:14:58;21.10;99.90
28520;DHT22;15732;48.534;20.382;2023-09-07T08:17:26;21.20;99.90
28520;DHT22;15732;48.534;20.382;2023-09-07T08:19:53;21.20;99.90
28520;DHT22;15732;48.534;20.382;2023-09-07T08:22:23;21.30;99.90
28520;DHT22;15732;48.534;20.382;2023-09-07T08:24:50;21.40;99.90
28520;DHT22;15732;48.534;20.382;2023-09-07T08:27:18;21.60;99.90
28520;DHT22;15732;48.534;20.382;2023-09-07T08:29:45;21.70;99.90
28520;DHT22;15732;48.534;20.382;2023-09-07T08:32:18;21.80;99.90
28520;DHT22;15732;48.534;20.382;2023-09-07T08:34:45;21.90;99.90
28520;DHT22;15732;48.534;20.382;2023-09-07T08:37:13;22.10;99.90
28520;DHT22;15732;48.534;20.382;2023-09-07T08:39:40;22.30;99.90
28520;DHT22;15732;48.534;20.382;2023-09-07T08:42:07;22.40;99.90
28520;DHT22;15732;48.534;20.382;2023-09-07T08:44:36;22.50;99.90
28520;DHT22;15732;48.534;20.382;2023-09-07T08:47:05;22.50;99.90
28520;DHT22;15732;48.534;20.382;2023-09-07T08:49:32;22.60;99.90
28520;DHT22;15732;48.534;20.382;2023-09-07T08:52:01;22.60;99.90
28520;DHT22;15732;48.534;20.382;2023-09-07T08:54:28;22.70;99.90
28520;DHT22;15732;48.534;20.382;2023-09-07T08:56:57;22.90;99.90
28520;DHT22;15732;48.534;20.382;2023-09-07T08:59:24;23.00;99.90
28520;DHT22;15732;48.534;20.382;2023-09-07T09:01:55;23.10;99.90
28520;DHT22;15732;48.534;20.382;2023-09-07T09:04:22;23.20;99.90
28520;DHT22;15732;48.534;20.382;2023-09-07T09:06:50;23.30;99.90
28520;DHT22;15732;48.534;20.382;2023-09-07T09:09:25;23.40;99.90
28520;DHT22;15732;48.534;20.382;2023-09-07T09:11:51;23.50;99.90
28520;DHT22;15732;48.534;20.382;2023-09-07T09:14:19;23.50;99.90
28520;DHT22;15732;48.534;20.382;2023-09-07T09:16:50;23.60;99.90
28520;DHT22;15732;48.534;20.382;2023-09-07T09:19:17;23.60;99.90
28520;DHT22;15732;48.534;20.382;2023-09-07T09:21:45;23.70;99.90
28520;DHT22;15732;48.534;20.382;2023-09-07T09:24:12;23.70;99.90
28520;DHT22;15732;48.534;20.382;2023-09-07T09:26:41;23.80;99.90
28520;DHT22;15732;48.534;20.382;2023-09-07T09:29:12;23.80;99.90
28520;DHT22;15732;48.534;20.382;2023-09-07T09:31:41;23.80;99.90
28520;DHT22;15732;48.534;20.382;2023-09-07T09:34:08;23.90;99.90
28520;DHT22;15732;48.534;20.382;2023-09-07T09:36:36;23.90;99.90
28520;DHT22;15732;48.534;20.382;2023-09-07T09:39:04;24.00;99.90
28520;DHT22;15732;48.534;20.382;2023-09-07T09:41:32;24.00;99.90
28520;DHT22;15732;48.534;20.382;2023-09-07T09:44:04;24.00;99.90
28520;DHT22;15732;48.534;20.382;2023-09-07T09:46:32;24.10;99.90
28520;DHT22;15732;48.534;20.382;2023-09-07T09:49:04;24.10;99.90
28520;DHT22;15732;48.534;20.382;2023-09-07T09:51:32;24.20;99.90
28520;DHT22;15732;48.534;20.382;2023-09-07T09:54:01;24.20;99.90
28520;DHT22;15732;48.534;20.382;2023-09-07T09:56:29;24.20;99.90
28520;DHT22;15732;48.534;20.382;2023-09-07T09:58:56;24.20;99.90
28520;DHT22;15732;48.534;20.382;2023-09-07T10:01:23;24.20;99.90
28520;DHT22;15732;48.534;20.382;2023-09-07T10:03:51;24.20;99.90
28520;DHT22;15732;48.534;20.382;2023-09-07T10:06:24;24.20;99.90
28520;DHT22;15732;48.534;20.382;2023-09-07T10:09:06;24.20;99.90
28520;DHT22;15732;48.534;20.382;2023-09-07T10:11:53;24.20;99.90
28520;DHT22;15732;48.534;20.382;2023-09-07T10:14:21;24.30;99.90
28520;DHT22;15732;48.534;20.382;2023-09-07T10:16:50;24.30;99.90
28520;DHT22;15732;48.534;20.382;2023-09-07T10:19:21;24.30;99.90
28520;DHT22;15732;48.534;20.382;2023-09-07T10:21:49;24.40;99.90
28520;DHT22;15732;48.534;20.382;2023-09-07T10:24:29;24.40;99.90
28520;DHT22;15732;48.534;20.382;2023-09-07T10:27:00;24.40;99.90
28520;DHT22;15732;48.534;20.382;2023-09-07T10:29:28;24.40;99.90
28520;DHT22;15732;48.534;20.382;2023-09-07T10:31:55;24.50;99.90
28520;DHT22;15732;48.534;20.382;2023-09-07T10:34:34;24.50;99.90
28520;DHT22;15732;48.534;20.382;2023-09-07T10:37:01;24.50;99.90
28520;DHT22;15732;48.534;20.382;2023-09-07T10:39:50;24.60;99.90
28520;DHT22;15732;48.534;20.382;2023-09-07T10:42:24;24.60;99.90
28520;DHT22;15732;48.534;20.382;2023-09-07T10:44:51;24.60;99.90
28520;DHT22;15732;48.534;20.382;2023-09-07T10:47:18;24.60;99.90
28520;DHT22;15732;48.534;20.382;2023-09-07T10:49:45;24.70;99.90
28520;DHT22;15732;48.534;20.382;2023-09-07T10:52:12;24.70;99.90
28520;DHT22;15732;48.534;20.382;2023-09-07T10:54:40;24.80;99.90
28520;DHT22;15732;48.534;20.382;2023-09-07T10:57:13;24.80;99.90
28520;DHT22;15732;48.534;20.382;2023-09-07T10:59:45;24.80;99.90
28520;DHT22;15732;48.534;20.382;2023-09-07T11:02:12;24.80;99.90
28520;DHT22;15732;48.534;20.382;2023-09-07T11:04:40;24.80;99.90
28520;DHT22;15732;48.534;20.382;2023-09-07T11:07:11;24.80;99.90
28520;DHT22;15732;48.534;20.382;2023-09-07T11:09:42;24.90;99.90
28520;DHT22;15732;48.534;20.382;2023-09-07T11:12:12;24.90;99.90
28520;DHT22;15732;48.534;20.382;2023-09-07T11:14:40;24.90;99.90
28520;DHT22;15732;48.534;20.382;2023-09-07T11:17:08;24.90;99.90
28520;DHT22;15732;48.534;20.382;2023-09-07T11:19:35;24.80;99.90
28520;DHT22;15732;48.534;20.382;2023-09-07T11:22:03;24.80;99.90
28520;DHT22;15732;48.534;20.382;2023-09-07T11:24:32;24.80;99.90
28520;DHT22;15732;48.534;20.382;2023-09-07T11:27:05;24.80;99.90
28520;DHT22;15732;48.534;20.382;2023-09-07T11:29:33;24.70;99.90
28520;DHT22;15732;48.534;20.382;2023-09-07T11:32:10;24.70;99.90
28520;DHT22;15732;48.534;20.382;2023-09-07T11:34:53;24.60;99.90
28520;DHT22;15732;48.534;20.382;2023-09-07T11:37:24;24.60;99.90
28520;DHT22;15732;48.534;20.382;2023-09-07T11:39:52;24.50;99.90
28520;DHT22;15732;48.534;20.382;2023-09-07T11:42:19;24.50;99.90
28520;DHT22;15732;48.534;20.382;2023-09-07T11:44:46;24.50;99.90
28520;DHT22;15732;48.534;20.382;2023-09-07T11:47:14;24.60;99.90
28520;DHT22;15732;48.534;20.382;2023-09-07T11:49:41;24.60;99.90
28520;DHT22;15732;48.534;20.382;2023-09-07T11:52:12;24.50;99.90
28520;DHT22;15732;48.534;20.382;2023-09-07T11:54:39;24.50;99.90
28520;DHT22;15732;48.534;20.382;2023-09-07T11:57:07;24.60;99.90
28520;DHT22;15732;48.534;20.382;2023-09-07T11:59:34;24.60;99.90
28520;DHT22;15732;48.534;20.382;2023-09-07T12:02:02;24.50;99.90
28520;DHT22;15732;48.534;20.382;2023-09-07T12:04:29;24.60;99.90
28520;DHT22;15732;48.534;20.382;2023-09-07T12:06:57;24.50;99.90
28520;DHT22;15732;48.534;20.382;2023-09-07T12:09:24;24.50;99.90
28520;DHT22;15732;48.534;20.382;2023-09-07T12:11:52;24.50;99.90
28520;DHT22;15732;48.534;20.382;2023-09-07T12:14:19;24.50;99.90
28520;DHT22;15732;48.534;20.382;2023-09-07T12:16:49;24.50;99.90
28520;DHT22;15732;48.534;20.382;2023-09-07T12:19:17;24.50;99.90
28520;DHT22;15732;48.534;20.382;2023-09-07T12:21:44;24.60;99.90
28520;DHT22;15732;48.534;20.382;2023-09-07T12:24:11;24.50;99.90
28520;DHT22;15732;48.534;20.382;2023-09-07T12:26:39;24.50;99.90
28520;DHT22;15732;48.534;20.382;2023-09-07T12:29:06;24.50;99.90
28520;DHT22;15732;48.534;20.382;2023-09-07T12:31:34;24.50;99.90
28520;DHT22;15732;48.534;20.382;2023-09-07T12:34:01;24.60;99.90
28520;DHT22;15732;48.534;20.382;2023-09-07T12:36:28;24.60;99.90
28520;DHT22;15732;48.534;20.382;2023-09-07T12:38:56;24.60;99.90
28520;DHT22;15732;48.534;20.382;2023-09-07T12:41:29;24.60;99.90
28520;DHT22;15732;48.534;20.382;2023-09-07T12:43:56;24.60;99.90
28520;DHT22;15732;48.534;20.382;2023-09-07T12:46:27;24.60;99.90
28520;DHT22;15732;48.534;20.382;2023-09-07T12:48:58;24.60;99.90
28520;DHT22;15732;48.534;20.382;2023-09-07T12:51:26;24.60;99.90
28520;DHT22;15732;48.534;20.382;2023-09-07T12:53:53;24.70;99.90
28520;DHT22;15732;48.534;20.382;2023-09-07T12:56:20;24.70;99.90
28520;DHT22;15732;48.534;20.382;2023-09-07T12:58:48;24.70;99.90
28520;DHT22;15732;48.534;20.382;2023-09-07T13:01:16;24.80;99.90
28520;DHT22;15732;48.534;20.382;2023-09-07T13:03:45;24.80;99.90
28520;DHT22;15732;48.534;20.382;2023-09-07T13:06:12;24.80;99.90
28520;DHT22;15732;48.534;20.382;2023-09-07T13:08:40;24.90;99.90
28520;DHT22;15732;48.534;20.382;2023-09-07T13:11:07;24.80;99.90
28520;DHT22;15732;48.534;20.382;2023-09-07T13:13:34;24.80;99.90
28520;DHT22;15732;48.534;20.382;2023-09-07T13:16:01;24.80;99.90
28520;DHT22;15732;48.534;20.382;2023-09-07T13:18:28;24.80;99.90
28520;DHT22;15732;48.534;20.382;2023-09-07T13:20:57;24.90;99.90
28520;DHT22;15732;48.534;20.382;2023-09-07T13:23:28;24.80;99.90
28520;DHT22;15732;48.534;20.382;2023-09-07T13:25:56;24.80;99.90
28520;DHT22;15732;48.534;20.382;2023-09-07T13:28:23;24.90;99.90
28520;DHT22;15732;48.534;20.382;2023-09-07T13:30:50;24.90;99.90
28520;DHT22;15732;48.534;20.382;2023-09-07T13:33:17;24.90;99.90
28520;DHT22;15732;48.534;20.382;2023-09-07T13:35:44;25.00;99.90
28520;DHT22;15732;48.534;20.382;2023-09-07T13:38:12;25.00;99.90
28520;DHT22;15732;48.534;20.382;2023-09-07T13:40:39;25.00;99.90
28520;DHT22;15732;48.534;20.382;2023-09-07T13:43:07;25.00;99.90
28520;DHT22;15732;48.534;20.382;2023-09-07T13:45:34;25.00;99.90
28520;DHT22;15732;48.534;20.382;2023-09-07T13:48:02;25.00;99.90
28520;DHT22;15732;48.534;20.382;2023-09-07T13:50:29;25.00;99.90
28520;DHT22;15732;48.534;20.382;2023-09-07T13:52:56;24.90;99.90
28520;DHT22;15732;48.534;20.382;2023-09-07T13:55:23;24.90;99.90
28520;DHT22;15732;48.534;20.382;2023-09-07T13:57:52;24.90;99.90
28520;DHT22;15732;48.534;20.382;2023-09-07T14:00:19;24.80;99.90
28520;DHT22;15732;48.534;20.382;2023-09-07T14:02:47;24.90;99.90
28520;DHT22;15732;48.534;20.382;2023-09-07T14:05:18;24.90;99.90
28520;DHT22;15732;48.534;20.382;2023-09-07T14:07:46;25.00;99.90
28520;DHT22;15732;48.534;20.382;2023-09-07T14:10:14;25.00;99.90
28520;DHT22;15732;48.534;20.382;2023-09-07T14:12:42;24.90;99.90
28520;DHT22;15732;48.534;20.382;2023-09-07T14:15:11;24.90;99.90
28520;DHT22;15732;48.534;20.382;2023-09-07T14:17:38;25.00;99.90
28520;DHT22;15732;48.534;20.382;2023-09-07T14:20:06;25.00;99.90
28520;DHT22;15732;48.534;20.382;2023-09-07T14:22:33;25.00;99.90
28520;DHT22;15732;48.534;20.382;2023-09-07T14:25:01;24.90;99.90
28520;DHT22;15732;48.534;20.382;2023-09-07T14:27:32;24.90;99.90
28520;DHT22;15732;48.534;20.382;2023-09-07T14:29:59;24.80;99.90
28520;DHT22;15732;48.534;20.382;2023-09-07T14:32:27;24.80;99.90
28520;DHT22;15732;48.534;20.382;2023-09-07T14:34:58;24.80;99.90
28520;DHT22;15732;48.534;20.382;2023-09-07T14:37:25;24.80;99.90
28520;DHT22;15732;48.534;20.382;2023-09-07T14:39:52;24.80;99.90
28520;DHT22;15732;48.534;20.382;2023-09-07T14:42:24;24.80;99.90
28520;DHT22;15732;48.534;20.382;2023-09-07T14:44:55;24.80;99.90
28520;DHT22;15732;48.534;20.382;2023-09-07T14:47:24;24.80;99.90
28520;DHT22;15732;48.534;20.382;2023-09-07T14:49:52;24.80;99.90
28520;DHT22;15732;48.534;20.382;2023-09-07T14:52:19;24.80;99.90
28520;DHT22;15732;48.534;20.382;2023-09-07T14:54:49;24.80;99.90
28520;DHT22;15732;48.534;20.382;2023-09-07T14:57:16;24.80;99.90
28520;DHT22;15732;48.534;20.382;2023-09-07T14:59:43;24.80;99.90
28520;DHT22;15732;48.534;20.382;2023-09-07T15:02:10;24.80;99.90
28520;DHT22;15732;48.534;20.382;2023-09-07T15:04:38;24.70;99.90
28520;DHT22;15732;48.534;20.382;2023-09-07T15:07:05;24.70;99.90
28520;DHT22;15732;48.534;20.382;2023-09-07T15:09:33;24.70;99.90
28520;DHT22;15732;48.534;20.382;2023-09-07T15:12:00;24.70;99.90
28520;DHT22;15732;48.534;20.382;2023-09-07T15:14:28;24.70;99.90
28520;DHT22;15732;48.534;20.382;2023-09-07T15:16:55;24.70;99.90
28520;DHT22;15732;48.534;20.382;2023-09-07T15:19:22;24.70;99.90
28520;DHT22;15732;48.534;20.382;2023-09-07T15:21:50;24.60;99.90